createdAt,value
2019-04-04T00:02:17.109Z,16.20
2019-04-04T00:04:44.137Z,19.67
2019-04-04T00:07:10.295Z,15.45
2019-04-04T00:09:36.484Z,16.90
2019-04-04T00:12:02.883Z,15.88
2019-04-04T00:14:29.140Z,16.37
2019-04-04T00:16:55.337Z,13.78
2019-04-04T00:19:21.553Z,15.43
2019-04-04T00:21:47.703Z,17.73
2019-04-04T00:24:14.082Z,17.23
2019-04-04T00:26:42.019Z,15.45
2019-04-04T00:29:09.034Z,17.42
2019-04-04T00:31:35.195Z,23.87
2019-04-04T00:34:01.407Z,16.90
2019-04-04T00:36:27.553Z,16.97
2019-04-04T00:38:53.879Z,18.50
2019-04-04T00:41:20.004Z,15.93
2019-04-04T00:43:46.267Z,23.67
2019-04-04T00:46:12.437Z,16.15
2019-04-04T00:48:38.664Z,17.20
2019-04-04T00:51:07.606Z,17.87
2019-04-04T00:53:33.217Z,14.30
2019-04-04T00:55:59.336Z,21.00
2019-04-04T00:58:25.555Z,14.70
2019-04-04T01:00:52.943Z,15.28
2019-04-04T01:03:19.804Z,17.45
2019-04-04T01:05:45.910Z,19.73
2019-04-04T01:08:12.135Z,16.23
2019-04-04T01:10:38.254Z,14.70
2019-04-04T01:13:04.719Z,15.78
2019-04-04T01:15:31.110Z,14.03
2019-04-04T01:17:58.169Z,18.42
2019-04-04T01:20:24.366Z,15.65
2019-04-04T01:22:51.698Z,15.23
2019-04-04T01:25:17.865Z,14.03
2019-04-04T01:27:44.044Z,14.28
2019-04-04T01:30:12.514Z,14.23
2019-04-04T01:32:38.435Z,14.47
2019-04-04T01:35:06.414Z,15.35
2019-04-04T01:37:33.812Z,20.15
2019-04-04T01:40:02.068Z,17.60
2019-04-04T01:42:28.160Z,15.83
2019-04-04T01:44:54.313Z,16.17
2019-04-04T01:47:20.565Z,16.35
2019-04-04T01:49:46.683Z,19.98
2019-04-04T01:52:12.888Z,22.67
2019-04-04T01:54:39.103Z,19.57
2019-04-04T01:57:07.820Z,20.45
2019-04-04T01:59:33.464Z,21.23
2019-04-04T02:01:59.647Z,24.37
2019-04-04T02:04:25.863Z,30.60
2019-04-04T02:06:52.027Z,29.10
2019-04-04T02:09:18.284Z,26.87
2019-04-04T02:11:44.442Z,28.92
2019-04-04T02:14:11.898Z,34.23
2019-04-04T02:16:38.783Z,35.10
2019-04-04T02:19:05.075Z,28.05
2019-04-04T02:21:31.271Z,30.75
2019-04-04T02:23:57.463Z,34.85
2019-04-04T02:26:23.937Z,32.53
2019-04-04T02:28:50.295Z,33.65
2019-04-04T02:31:20.606Z,26.48
2019-04-04T02:33:45.336Z,28.80
2019-04-04T02:36:16.166Z,28.47
2019-04-04T02:38:39.716Z,28.60
2019-04-04T02:41:05.977Z,28.70
2019-04-04T02:43:32.257Z,35.55
2019-04-04T02:45:59.616Z,25.57
2019-04-04T02:48:25.814Z,27.42
2019-04-04T02:50:51.973Z,24.95
2019-04-04T02:53:20.313Z,24.80
2019-04-04T02:55:46.201Z,29.35
2019-04-04T02:58:15.053Z,23.00
2019-04-04T03:00:40.475Z,26.73
2019-04-04T03:03:09.154Z,23.32
2019-04-04T03:05:34.971Z,20.92
2019-04-04T03:08:04.235Z,23.07
2019-04-04T03:10:29.499Z,23.27
2019-04-04T03:12:58.692Z,21.97
2019-04-04T03:15:23.893Z,22.37
2019-04-04T03:17:50.155Z,20.15
2019-04-04T03:20:17.466Z,22.05
2019-04-04T03:22:44.074Z,20.62
2019-04-04T03:25:14.454Z,22.25
2019-04-04T03:27:38.516Z,18.23
2019-04-04T03:30:13.548Z,24.25
2019-04-04T03:32:34.358Z,19.95
2019-04-04T03:35:00.728Z,19.57
2019-04-04T03:37:26.873Z,24.60
2019-04-04T03:39:53.537Z,21.97
2019-04-04T03:42:19.786Z,19.80
2019-04-04T03:44:46.003Z,20.00
2019-04-04T03:47:12.111Z,21.30
2019-04-04T03:49:38.360Z,21.07
2019-04-04T03:52:04.709Z,19.27
2019-04-04T03:54:30.845Z,20.65
2019-04-04T03:56:57.074Z,23.87
2019-04-04T03:59:23.227Z,26.02
2019-04-04T04:01:49.730Z,30.45
2019-04-04T04:04:15.894Z,30.50
2019-04-04T04:06:43.076Z,28.05
2019-04-04T04:09:09.423Z,26.82
2019-04-04T04:11:37.499Z,24.02
2019-04-04T04:14:03.717Z,22.87
2019-04-04T04:16:29.881Z,23.35
2019-04-04T04:18:56.038Z,24.65
2019-04-04T04:21:22.188Z,32.30
2019-04-04T04:23:50.022Z,27.20
2019-04-04T04:26:16.628Z,28.05
2019-04-04T04:28:42.845Z,31.33
2019-04-04T04:31:09.044Z,34.38
2019-04-04T04:33:35.208Z,33.25
2019-04-04T04:36:01.359Z,35.90
2019-04-04T04:38:27.536Z,41.85
2019-04-04T04:40:53.741Z,41.60
2019-04-04T04:43:19.855Z,38.48
2019-04-04T04:45:46.160Z,34.80
2019-04-04T04:48:12.261Z,37.30
2019-04-04T04:50:40.465Z,34.00
2019-04-04T04:53:06.466Z,34.30
2019-04-04T04:55:32.741Z,29.18
2019-04-04T04:57:58.898Z,46.85
2019-04-04T05:00:27.789Z,41.58
2019-04-04T05:02:53.803Z,122.58
2019-04-04T05:05:20.030Z,66.97
2019-04-04T05:07:46.270Z,43.98
2019-04-04T05:10:12.959Z,43.95
2019-04-04T05:12:41.318Z,48.60
2019-04-04T05:15:07.696Z,51.18
2019-04-04T05:17:33.946Z,47.30
2019-04-04T05:20:00.242Z,46.25
2019-04-04T05:22:26.478Z,45.95
2019-04-04T05:25:07.109Z,39.33
2019-04-04T05:27:20.949Z,41.10
2019-04-04T05:29:47.634Z,42.43
2019-04-04T05:32:13.852Z,41.37
2019-04-04T05:34:40.193Z,41.05
2019-04-04T05:37:07.275Z,38.45
2019-04-04T05:39:35.233Z,40.40
2019-04-04T05:42:01.310Z,39.55
2019-04-04T05:44:27.530Z,37.50
2019-04-04T05:46:53.618Z,38.65
2019-04-04T05:49:19.842Z,41.10
2019-04-04T05:51:46.315Z,41.50
2019-04-04T05:54:14.132Z,39.00
2019-04-04T05:56:40.220Z,35.45
2019-04-04T05:59:06.942Z,39.60
2019-04-04T06:01:35.325Z,35.33
2019-04-04T06:04:03.821Z,35.90
2019-04-04T06:06:31.168Z,32.45
2019-04-04T06:08:58.434Z,34.20
2019-04-04T06:11:24.731Z,32.70
2019-04-04T06:13:50.838Z,37.98
2019-04-04T06:16:17.040Z,32.45
2019-04-04T06:18:43.638Z,27.22
2019-04-04T06:21:09.872Z,22.87
2019-04-04T06:23:36.024Z,18.70
2019-04-04T06:26:06.336Z,23.85
2019-04-04T06:28:30.457Z,21.25
2019-04-04T06:30:56.624Z,20.43
2019-04-04T06:33:23.928Z,17.85
2019-04-04T06:35:50.142Z,21.23
2019-04-04T06:38:17.315Z,19.77
2019-04-04T06:40:43.514Z,22.42
2019-04-04T06:43:11.524Z,18.52
2019-04-04T06:45:37.731Z,21.23
2019-04-04T06:48:04.046Z,18.35
2019-04-04T06:50:30.189Z,17.50
2019-04-04T06:52:56.772Z,19.92
2019-04-04T06:55:23.105Z,15.48
2019-04-04T06:57:51.251Z,17.52
2019-04-04T07:00:17.901Z,19.27
2019-04-04T07:02:44.062Z,19.48
2019-04-04T07:05:10.975Z,18.12
2019-04-04T07:07:37.327Z,17.10
2019-04-04T07:10:04.331Z,19.25
2019-04-04T07:12:31.575Z,13.72
2019-04-04T07:14:57.802Z,16.42
2019-04-04T07:17:24.246Z,14.05
2019-04-04T07:19:50.568Z,15.85
2019-04-04T07:22:16.675Z,19.85
2019-04-04T07:24:42.883Z,14.73
2019-04-04T07:27:09.025Z,17.65
2019-04-04T07:29:35.216Z,14.40
2019-04-04T07:32:01.311Z,14.65
2019-04-04T07:34:27.528Z,14.50
2019-04-04T07:36:53.653Z,12.98
2019-04-04T07:39:19.889Z,13.60
2019-04-04T07:41:45.984Z,14.98
2019-04-04T07:44:12.246Z,13.75
2019-04-04T07:46:40.910Z,12.70
2019-04-04T07:49:06.477Z,16.23
2019-04-04T07:51:32.652Z,13.55
2019-04-04T07:53:58.830Z,17.37
2019-04-04T07:56:25.083Z,19.27
2019-04-04T07:58:51.227Z,18.37
2019-04-04T08:01:17.540Z,12.73
2019-04-04T08:03:43.630Z,13.35
2019-04-04T08:06:09.833Z,13.32
2019-04-04T08:08:35.995Z,9.23
2019-04-04T08:11:02.459Z,16.65
2019-04-04T08:13:28.722Z,9.30
2019-04-04T08:15:56.369Z,18.75
2019-04-04T08:18:22.654Z,16.17
2019-04-04T08:20:48.857Z,9.75
2019-04-04T08:23:15.195Z,12.13
2019-04-04T08:25:41.332Z,10.05
2019-04-04T08:28:07.568Z,10.82
2019-04-04T08:30:33.833Z,8.80
2019-04-04T08:33:00.111Z,10.78
2019-04-04T08:35:26.210Z,13.13
2019-04-04T08:37:52.517Z,11.48
2019-04-04T08:40:18.780Z,23.45
2019-04-04T08:42:44.990Z,7.10
2019-04-04T08:45:12.361Z,14.78
2019-04-04T08:47:38.574Z,6.70
2019-04-04T08:50:05.338Z,19.77
2019-04-04T08:52:31.578Z,13.88
2019-04-04T08:54:57.920Z,13.10
2019-04-04T08:57:24.398Z,8.00
2019-04-04T08:59:50.582Z,12.43
2019-04-04T09:02:16.836Z,20.52
2019-04-04T09:04:43.006Z,8.60
2019-04-04T09:07:09.099Z,7.10
2019-04-04T09:09:35.331Z,24.50
2019-04-04T09:12:01.682Z,6.35
2019-04-04T09:14:27.854Z,13.72
2019-04-04T09:16:54.143Z,6.62
2019-04-04T09:19:20.420Z,8.08
2019-04-04T09:21:46.639Z,6.75
2019-04-04T09:24:13.412Z,7.25
2019-04-04T09:26:39.754Z,8.95
2019-04-04T09:29:05.850Z,5.12
2019-04-04T09:31:32.039Z,34.92
2019-04-04T09:33:58.127Z,10.70
2019-04-04T09:36:24.724Z,6.97
2019-04-04T09:38:51.888Z,5.35
2019-04-04T09:41:18.209Z,11.03
2019-04-04T09:43:45.402Z,11.85
2019-04-04T09:46:11.594Z,9.85
2019-04-04T09:48:37.732Z,5.47
2019-04-04T09:51:03.895Z,11.73
2019-04-04T09:53:30.060Z,10.68
2019-04-04T09:55:56.299Z,7.10
2019-04-04T09:58:22.408Z,4.37
2019-04-04T10:00:49.830Z,6.22
2019-04-04T10:03:15.987Z,11.57
2019-04-04T10:05:42.133Z,10.63
2019-04-04T10:08:08.475Z,4.33
2019-04-04T10:10:34.762Z,5.90
2019-04-04T10:13:00.926Z,35.78
2019-04-04T10:15:27.208Z,8.18
2019-04-04T10:17:53.383Z,6.45
2019-04-04T10:20:19.523Z,5.70
2019-04-04T10:22:45.732Z,8.90
2019-04-04T10:25:12.174Z,11.43
2019-04-04T10:27:38.368Z,7.05
2019-04-04T10:30:08.113Z,5.25
2019-04-04T10:32:34.478Z,12.00
2019-04-04T10:35:00.879Z,7.22
2019-04-04T10:37:27.156Z,6.78
2019-04-04T10:39:53.640Z,6.78
2019-04-04T10:42:19.851Z,32.73
2019-04-04T10:44:47.261Z,17.23
2019-04-04T10:47:13.451Z,19.87
2019-04-04T10:49:39.666Z,44.42
2019-04-04T10:52:05.922Z,14.43
2019-04-04T10:54:32.140Z,69.30
2019-04-04T10:56:58.396Z,26.02
2019-04-04T10:59:24.771Z,38.45
2019-04-04T11:01:50.927Z,224.10
2019-04-04T11:04:17.114Z,48.73
2019-04-04T11:06:43.279Z,31.70
2019-04-04T11:09:09.664Z,26.62
2019-04-04T11:11:36.036Z,301.50
2019-04-04T11:14:02.431Z,25.43
2019-04-04T11:16:30.402Z,9.93
2019-04-04T11:18:56.644Z,16.55
2019-04-04T11:21:23.008Z,28.27
2019-04-04T11:23:49.263Z,8.13
2019-04-04T11:26:15.522Z,12.50
2019-04-04T11:28:41.796Z,12.37
2019-04-04T11:31:08.161Z,9.08
2019-04-04T11:33:34.465Z,17.32
2019-04-04T11:36:00.641Z,9.73
2019-04-04T11:38:26.954Z,45.12
2019-04-04T11:40:53.132Z,16.23
2019-04-04T11:43:19.323Z,46.68
2019-04-04T11:45:45.481Z,16.87
2019-04-04T11:48:11.659Z,22.37
2019-04-04T11:50:39.747Z,10.15
2019-04-04T11:53:05.863Z,11.85
2019-04-04T11:55:32.026Z,7.75
2019-04-04T11:57:58.301Z,22.50
2019-04-04T12:00:26.419Z,17.75
2019-04-04T12:02:52.563Z,7.08
2019-04-04T12:05:18.812Z,10.32
2019-04-04T12:07:44.918Z,24.72
2019-04-04T12:10:11.518Z,9.70
2019-04-04T12:12:37.828Z,14.07
2019-04-04T12:15:05.834Z,7.70
2019-04-04T12:17:32.210Z,15.98
2019-04-04T12:19:58.439Z,27.30
2019-04-04T12:22:24.827Z,12.03
2019-04-04T12:24:51.285Z,13.15
2019-04-04T12:27:17.458Z,14.40
2019-04-04T12:29:43.734Z,10.38
2019-04-04T12:32:10.369Z,25.40
2019-04-04T12:34:36.813Z,11.78
2019-04-04T12:37:03.164Z,12.33
2019-04-04T12:39:29.431Z,15.58
2019-04-04T12:41:55.624Z,8.70
2019-04-04T12:44:21.753Z,18.23
2019-04-04T12:46:48.115Z,16.32
2019-04-04T12:49:14.288Z,11.20
2019-04-04T12:51:40.527Z,15.60
2019-04-04T12:54:06.874Z,10.75
2019-04-04T12:56:33.139Z,12.05
2019-04-04T12:58:59.343Z,17.10
2019-04-04T13:01:25.447Z,7.33
2019-04-04T13:03:51.681Z,26.33
2019-04-04T13:06:18.774Z,29.00
2019-04-04T13:08:44.997Z,13.35
2019-04-04T13:11:11.162Z,6.30
2019-04-04T13:13:38.360Z,13.50
2019-04-04T13:16:05.743Z,8.53
2019-04-04T13:18:32.020Z,8.25
2019-04-04T13:20:58.332Z,41.23
2019-04-04T13:23:24.659Z,10.95
2019-04-04T13:25:50.872Z,7.83
2019-04-04T13:28:17.037Z,10.55
2019-04-04T13:30:43.198Z,12.53
2019-04-04T13:33:09.365Z,11.57
2019-04-04T13:35:37.560Z,11.60
2019-04-04T13:38:03.988Z,42.60
2019-04-04T13:40:30.181Z,19.70
2019-04-04T13:42:56.405Z,11.45
2019-04-04T13:45:24.756Z,10.38
2019-04-04T13:47:50.630Z,7.58
2019-04-04T13:50:20.450Z,9.90
2019-04-04T13:55:12.835Z,8.88
2019-04-04T13:57:39.571Z,9.53
2019-04-04T14:00:08.093Z,6.95
2019-04-04T14:02:34.469Z,7.37
2019-04-04T14:05:09.792Z,6.62
2019-04-04T14:07:29.916Z,8.27
2019-04-04T14:09:56.167Z,5.90
2019-04-04T14:12:22.384Z,6.10
2019-04-04T14:14:48.554Z,7.90
2019-04-04T14:17:14.821Z,7.25
2019-04-04T14:19:41.044Z,6.20
2019-04-04T14:22:07.243Z,5.00
2019-04-04T14:24:33.570Z,6.47
2019-04-04T14:26:59.755Z,6.75
2019-04-04T14:29:27.654Z,11.05
2019-04-04T14:31:54.019Z,11.50
2019-04-04T14:34:20.241Z,8.75
2019-04-04T14:36:46.430Z,31.87
2019-04-04T14:39:12.700Z,8.03
2019-04-04T14:41:39.064Z,6.00
2019-04-04T14:44:05.234Z,5.45
2019-04-04T14:46:31.450Z,5.37
2019-04-04T14:48:57.552Z,8.25
2019-04-04T14:51:23.757Z,18.62
2019-04-04T14:53:50.014Z,5.75
2019-04-04T14:56:16.249Z,7.95
2019-04-04T14:58:42.385Z,5.20
2019-04-04T15:01:08.549Z,4.90
2019-04-04T15:03:34.805Z,6.45
2019-04-04T15:06:01.072Z,11.70
2019-04-04T15:08:27.241Z,3.75
2019-04-04T15:10:53.574Z,5.15
2019-04-04T15:13:20.052Z,8.90
2019-04-04T15:16:11.781Z,6.12
2019-04-04T15:18:37.976Z,6.00
2019-04-04T15:21:05.790Z,7.75
2019-04-04T15:23:32.087Z,58.98
2019-04-04T15:25:58.429Z,6.78
2019-04-04T15:28:26.094Z,8.63
2019-04-04T15:30:52.614Z,10.10
2019-04-04T15:33:18.861Z,6.40
2019-04-04T15:35:45.062Z,13.13
2019-04-04T15:38:11.245Z,6.90
2019-04-04T15:40:37.527Z,7.95
2019-04-04T15:43:03.792Z,4.70
2019-04-04T15:45:30.083Z,6.58
2019-04-04T15:47:56.292Z,7.50
2019-04-04T15:50:22.390Z,8.28
2019-04-04T15:52:48.686Z,5.83
2019-04-04T15:55:14.789Z,8.50
2019-04-04T15:57:41.002Z,9.98
2019-04-04T16:00:08.175Z,18.55
2019-04-04T16:02:34.423Z,6.42
2019-04-04T16:05:00.701Z,12.45
2019-04-04T16:07:26.996Z,14.45
2019-04-04T16:09:53.110Z,5.58
2019-04-04T16:12:19.465Z,9.23
2019-04-04T16:14:45.710Z,7.58
2019-04-04T16:17:12.167Z,9.40
2019-04-04T16:19:38.443Z,6.28
2019-04-04T16:22:04.645Z,8.63
2019-04-04T16:24:30.806Z,13.25
2019-04-04T16:26:57.029Z,6.53
2019-04-04T16:29:23.208Z,6.33
2019-04-04T16:31:49.435Z,13.70
2019-04-04T16:34:15.547Z,7.35
2019-04-04T16:36:41.866Z,11.63
2019-04-04T16:39:08.070Z,12.98
2019-04-04T16:41:34.271Z,14.78
2019-04-04T16:44:00.469Z,12.07
2019-04-04T16:46:26.718Z,9.08
2019-04-04T16:48:52.952Z,22.00
2019-04-04T16:51:19.054Z,9.43
2019-04-04T16:53:45.275Z,8.45
2019-04-04T16:56:12.570Z,8.53
2019-04-04T16:58:38.871Z,11.95
2019-04-04T17:01:05.112Z,7.30
2019-04-04T17:03:34.160Z,46.02
2019-04-04T17:06:02.291Z,18.75
2019-04-04T17:08:28.573Z,11.18
2019-04-04T17:10:54.806Z,18.80
2019-04-04T17:13:20.974Z,9.13
2019-04-04T17:15:47.173Z,7.90
2019-04-04T17:18:13.426Z,8.35
2019-04-04T17:20:39.634Z,17.05
2019-04-04T17:23:05.860Z,29.40
2019-04-04T17:25:32.036Z,13.80
2019-04-04T17:27:59.231Z,10.18
2019-04-04T17:30:25.579Z,10.35
2019-04-04T17:32:51.939Z,10.90
2019-04-04T17:35:18.331Z,15.55
2019-04-04T17:37:44.657Z,16.27
2019-04-04T17:40:11.274Z,16.48
2019-04-04T17:42:37.409Z,15.38
2019-04-04T17:45:08.114Z,10.35
2019-04-04T17:47:34.290Z,11.12
2019-04-04T17:50:00.732Z,12.47
2019-04-04T17:52:26.989Z,12.23
2019-04-04T17:54:53.226Z,28.02
2019-04-04T17:57:20.440Z,11.68
2019-04-04T17:59:46.619Z,16.05
2019-04-04T18:02:12.978Z,25.12
2019-04-04T18:04:48.206Z,11.25
2019-04-04T18:07:07.456Z,12.53
2019-04-04T18:09:33.772Z,13.53
2019-04-04T18:12:00.094Z,18.90
2019-04-04T18:14:26.203Z,29.65
2019-04-04T18:16:52.465Z,18.10
2019-04-04T18:19:18.672Z,20.30
2019-04-04T18:21:44.932Z,15.05
2019-04-04T18:24:11.047Z,15.63
2019-04-04T18:26:37.388Z,13.20
2019-04-04T18:29:03.838Z,12.10
2019-04-04T18:31:30.190Z,13.95
2019-04-04T18:33:56.491Z,16.85
2019-04-04T18:36:23.203Z,13.35
2019-04-04T18:38:49.410Z,10.78
2019-04-04T18:41:15.636Z,12.63
2019-04-04T18:43:41.854Z,12.60
2019-04-04T18:46:08.128Z,15.35
2019-04-04T18:48:34.539Z,11.43
2019-04-04T18:51:00.787Z,10.60
2019-04-04T18:53:27.944Z,15.55
2019-04-04T18:55:54.159Z,19.40
2019-04-04T18:58:20.378Z,17.62
2019-04-04T19:00:46.664Z,13.10
2019-04-04T19:03:12.874Z,11.50
2019-04-04T19:05:39.208Z,9.90
2019-04-04T19:08:05.675Z,9.58
2019-04-04T19:10:32.029Z,15.28
2019-04-04T19:13:05.186Z,16.73
2019-04-04T19:15:26.257Z,17.98
2019-04-04T19:17:52.481Z,13.50
2019-04-04T19:20:19.083Z,18.92
2019-04-04T19:22:45.360Z,20.27
2019-04-04T19:25:13.794Z,19.57
2019-04-04T19:27:40.878Z,20.40
2019-04-04T19:30:08.472Z,24.27
2019-04-04T19:32:35.009Z,35.03
2019-04-04T19:35:01.107Z,34.90
2019-04-04T19:37:27.336Z,32.30
2019-04-04T19:39:54.471Z,34.40
2019-04-04T19:42:20.820Z,42.10
2019-04-04T19:44:53.325Z,51.60
2019-04-04T19:47:15.249Z,53.85
2019-04-04T19:49:41.343Z,59.53
2019-04-04T19:52:07.611Z,69.12
2019-04-04T19:54:33.984Z,65.87
2019-04-04T19:57:00.251Z,76.70
2019-04-04T19:59:26.440Z,65.17
2019-04-04T20:01:52.540Z,70.20
2019-04-04T20:04:18.772Z,64.85
2019-04-04T20:06:45.034Z,76.97
2019-04-04T20:09:11.357Z,74.50
2019-04-04T20:11:37.570Z,67.90
2019-04-04T20:14:03.790Z,68.62
2019-04-04T20:16:29.910Z,67.95
2019-04-04T20:18:56.223Z,69.45
2019-04-04T20:21:22.431Z,72.12
2019-04-04T20:23:48.683Z,68.87
2019-04-04T20:26:19.303Z,71.00
2019-04-04T20:28:46.278Z,69.40
2019-04-04T20:31:12.526Z,73.25
2019-04-04T20:33:38.772Z,72.95
2019-04-04T20:36:04.996Z,73.97
2019-04-04T20:38:31.139Z,70.15
2019-04-04T20:40:57.420Z,75.85
2019-04-04T20:43:23.723Z,73.17
2019-04-04T20:45:50.415Z,66.57
2019-04-04T20:48:16.580Z,82.75
2019-04-04T20:50:42.842Z,77.60
2019-04-04T20:53:09.048Z,71.65
2019-04-04T20:55:35.146Z,75.87
2019-04-04T20:58:02.426Z,76.85
2019-04-04T21:00:28.580Z,77.87
2019-04-04T21:02:54.835Z,74.75
2019-04-04T21:05:20.985Z,73.72
2019-04-04T21:07:47.123Z,82.67
2019-04-04T21:10:13.374Z,76.62
2019-04-04T21:12:39.670Z,77.15
2019-04-04T21:15:06.297Z,74.95
2019-04-04T21:17:32.615Z,79.92
2019-04-04T21:19:58.783Z,75.87
2019-04-04T21:22:27.654Z,77.62
2019-04-04T21:24:53.263Z,80.97
2019-04-04T21:27:19.565Z,78.85
2019-04-04T21:29:45.726Z,85.62
2019-04-04T21:32:11.895Z,91.10
2019-04-04T21:34:38.051Z,85.40
2019-04-04T21:37:04.276Z,86.80
2019-04-04T21:39:30.528Z,84.45
2019-04-04T21:41:56.856Z,83.72
2019-04-04T21:44:22.971Z,82.08
2019-04-04T21:46:49.185Z,83.97
2019-04-04T21:49:15.339Z,82.37
2019-04-04T21:51:41.542Z,84.05
2019-04-04T21:54:07.691Z,91.28
2019-04-04T21:56:33.902Z,85.90
2019-04-04T21:59:00.113Z,80.15
2019-04-04T22:01:26.274Z,84.20
2019-04-04T22:03:53.597Z,82.45
2019-04-04T22:06:19.772Z,82.27
2019-04-04T22:08:45.966Z,80.15
2019-04-04T22:11:12.183Z,85.60
2019-04-04T22:13:38.510Z,76.40
2019-04-04T22:16:05.119Z,81.57
2019-04-04T22:18:31.337Z,79.87
2019-04-04T22:20:57.481Z,78.05
2019-04-04T22:23:23.737Z,75.55
2019-04-04T22:25:49.941Z,73.30
2019-04-04T22:28:16.264Z,70.78
2019-04-04T22:30:42.977Z,70.00
2019-04-04T22:33:09.063Z,69.87
2019-04-04T22:35:35.260Z,69.92
2019-04-04T22:38:01.567Z,71.22
2019-04-04T22:40:27.791Z,71.75
2019-04-04T22:42:53.997Z,69.05
2019-04-04T22:45:20.186Z,79.53
2019-04-04T22:47:46.357Z,77.22
2019-04-04T22:50:12.842Z,86.80
2019-04-04T22:52:39.095Z,82.57
2019-04-04T22:55:05.975Z,84.85
2019-04-04T22:57:32.239Z,84.37
2019-04-04T22:59:58.493Z,81.95
2019-04-04T23:02:25.101Z,76.60
2019-04-04T23:04:51.218Z,78.55
2019-04-04T23:07:17.451Z,81.97
2019-04-04T23:09:43.624Z,83.80
2019-04-04T23:12:09.838Z,80.80
2019-04-04T23:14:47.525Z,82.72
2019-04-04T23:17:04.041Z,75.17
2019-04-04T23:19:30.209Z,83.87
2019-04-04T23:21:56.427Z,89.95
2019-04-04T23:24:22.540Z,79.05
2019-04-04T23:26:48.787Z,86.00
2019-04-04T23:29:14.989Z,83.82
2019-04-04T23:31:41.109Z,81.30
2019-04-04T23:34:07.297Z,84.00
2019-04-04T23:36:35.269Z,84.52
2019-04-04T23:39:01.703Z,85.47
2019-04-04T23:41:29.707Z,89.20
2019-04-04T23:43:55.911Z,79.55
2019-04-04T23:46:22.135Z,90.05
2019-04-04T23:48:48.305Z,87.42
2019-04-04T23:51:14.475Z,85.12
2019-04-04T23:53:40.645Z,82.75
2019-04-04T23:56:06.806Z,85.20
2019-04-04T23:58:33.088Z,93.27
